sensor_id;sensor_type;location;lat;lon;timestamp;temperature;humidity
14236;DHT22;7202;50.718;7.072;2023-02-19T00:02:00;10.10;99.90
14236;DHT22;7202;50.718;7.072;2023-02-19T00:04:29;10.10;99.90
14236;DHT22;7202;50.718;7.072;2023-02-19T00:06:57;10.10;99.90
14236;DHT22;7202;50.718;7.072;2023-02-19T00:09:26;10.10;99.90
14236;DHT22;7202;50.718;7.072;2023-02-19T00:11:55;10.10;99.90
14236;DHT22;7202;50.718;7.072;2023-02-19T00:14:23;10.10;99.90
14236;DHT22;7202;50.718;7.072;2023-02-19T00:16:53;10.10;99.90
14236;DHT22;7202;50.718;7.072;2023-02-19T00:19:22;10.10;99.90
14236;DHT22;7202;50.718;7.072;2023-02-19T00:21:51;10.10;99.90
14236;DHT22;7202;50.718;7.072;2023-02-19T00:24:20;10.20;99.90
14236;DHT22;7202;50.718;7.072;2023-02-19T00:26:49;10.20;99.90
14236;DHT22;7202;50.718;7.072;2023-02-19T00:29:19;10.20;99.90
14236;DHT22;7202;50.718;7.072;2023-02-19T00:31:48;10.10;99.90
14236;DHT22;7202;50.718;7.072;2023-02-19T00:34:19;10.10;99.90
14236;DHT22;7202;50.718;7.072;2023-02-19T00:36:48;10.10;99.90
14236;DHT22;7202;50.718;7.072;2023-02-19T00:39:16;10.10;99.90
14236;DHT22;7202;50.718;7.072;2023-02-19T00:41:45;10.10;99.90
14236;DHT22;7202;50.718;7.072;2023-02-19T00:44:14;10.10;99.90
14236;DHT22;7202;50.718;7.072;2023-02-19T00:46:44;10.00;99.90
14236;DHT22;7202;50.718;7.072;2023-02-19T00:49:16;10.10;99.90
14236;DHT22;7202;50.718;7.072;2023-02-19T00:51:47;10.10;99.90
14236;DHT22;7202;50.718;7.072;2023-02-19T00:54:16;10.10;99.90
14236;DHT22;7202;50.718;7.072;2023-02-19T00:56:45;10.10;99.90
14236;DHT22;7202;50.718;7.072;2023-02-19T00:59:14;10.10;99.90
14236;DHT22;7202;50.718;7.072;2023-02-19T01:01:43;10.20;99.90
14236;DHT22;7202;50.718;7.072;2023-02-19T01:04:12;10.20;99.90
14236;DHT22;7202;50.718;7.072;2023-02-19T01:06:42;10.20;99.90
14236;DHT22;7202;50.718;7.072;2023-02-19T01:09:12;10.20;99.90
14236;DHT22;7202;50.718;7.072;2023-02-19T01:11:41;10.30;99.90
14236;DHT22;7202;50.718;7.072;2023-02-19T01:14:10;10.30;99.90
14236;DHT22;7202;50.718;7.072;2023-02-19T01:16:38;10.30;99.90
14236;DHT22;7202;50.718;7.072;2023-02-19T01:19:07;10.30;99.90
14236;DHT22;7202;50.718;7.072;2023-02-19T01:21:36;10.30;99.90
14236;DHT22;7202;50.718;7.072;2023-02-19T01:24:05;10.20;99.90
14236;DHT22;7202;50.718;7.072;2023-02-19T01:26:35;10.20;99.90
14236;DHT22;7202;50.718;7.072;2023-02-19T01:29:03;10.20;99.90
14236;DHT22;7202;50.718;7.072;2023-02-19T01:31:33;10.20;99.90
14236;DHT22;7202;50.718;7.072;2023-02-19T01:34:03;10.20;99.90
14236;DHT22;7202;50.718;7.072;2023-02-19T01:36:33;10.10;99.90
14236;DHT22;7202;50.718;7.072;2023-02-19T01:39:04;10.10;99.90
14236;DHT22;7202;50.718;7.072;2023-02-19T01:41:37;10.10;99.90
14236;DHT22;7202;50.718;7.072;2023-02-19T01:46:51;10.10;99.90
14236;DHT22;7202;50.718;7.072;2023-02-19T01:49:26;10.10;99.90
14236;DHT22;7202;50.718;7.072;2023-02-19T01:51:58;10.10;99.90
14236;DHT22;7202;50.718;7.072;2023-02-19T01:54:29;10.10;99.90
14236;DHT22;7202;50.718;7.072;2023-02-19T01:57:01;10.00;99.90
14236;DHT22;7202;50.718;7.072;2023-02-19T01:59:33;10.00;99.90
14236;DHT22;7202;50.718;7.072;2023-02-19T02:02:02;10.00;99.90
14236;DHT22;7202;50.718;7.072;2023-02-19T02:04:31;9.90;99.90
14236;DHT22;7202;50.718;7.072;2023-02-19T02:07:02;9.90;99.90
14236;DHT22;7202;50.718;7.072;2023-02-19T02:09:53;9.90;99.90
14236;DHT22;7202;50.718;7.072;2023-02-19T02:12:40;9.90;99.90
14236;DHT22;7202;50.718;7.072;2023-02-19T02:15:09;9.90;99.90
14236;DHT22;7202;50.718;7.072;2023-02-19T02:17:44;9.90;99.90
14236;DHT22;7202;50.718;7.072;2023-02-19T02:20:32;9.90;99.90
14236;DHT22;7202;50.718;7.072;2023-02-19T02:23:08;9.90;99.90
14236;DHT22;7202;50.718;7.072;2023-02-19T02:25:58;9.90;99.90
14236;DHT22;7202;50.718;7.072;2023-02-19T02:31:30;9.90;99.90
14236;DHT22;7202;50.718;7.072;2023-02-19T02:34:06;9.90;99.90
14236;DHT22;7202;50.718;7.072;2023-02-19T02:36:39;9.90;99.90
14236;DHT22;7202;50.718;7.072;2023-02-19T02:39:14;9.90;99.90
14236;DHT22;7202;50.718;7.072;2023-02-19T02:41:48;9.90;99.90
14236;DHT22;7202;50.718;7.072;2023-02-19T02:44:39;9.90;99.90
14236;DHT22;7202;50.718;7.072;2023-02-19T02:47:10;9.90;99.90
14236;DHT22;7202;50.718;7.072;2023-02-19T02:49:59;9.90;99.90
14236;DHT22;7202;50.718;7.072;2023-02-19T02:52:39;9.90;99.90
14236;DHT22;7202;50.718;7.072;2023-02-19T02:55:30;9.90;99.90
14236;DHT22;7202;50.718;7.072;2023-02-19T02:58:00;9.90;99.90
14236;DHT22;7202;50.718;7.072;2023-02-19T03:00:31;10.00;99.90
14236;DHT22;7202;50.718;7.072;2023-02-19T03:03:27;10.00;99.90
14236;DHT22;7202;50.718;7.072;2023-02-19T03:05:59;10.00;99.90
14236;DHT22;7202;50.718;7.072;2023-02-19T03:08:30;10.00;99.90
14236;DHT22;7202;50.718;7.072;2023-02-19T03:11:04;10.00;99.90
14236;DHT22;7202;50.718;7.072;2023-02-19T03:13:49;10.00;99.90
14236;DHT22;7202;50.718;7.072;2023-02-19T03:16:39;10.00;99.90
14236;DHT22;7202;50.718;7.072;2023-02-19T03:19:30;10.10;99.90
14236;DHT22;7202;50.718;7.072;2023-02-19T03:22:06;10.10;99.90
14236;DHT22;7202;50.718;7.072;2023-02-19T03:24:41;10.10;99.90
14236;DHT22;7202;50.718;7.072;2023-02-19T03:27:29;10.20;99.90
14236;DHT22;7202;50.718;7.072;2023-02-19T03:30:03;10.20;99.90
14236;DHT22;7202;50.718;7.072;2023-02-19T03:32:36;10.20;99.90
14236;DHT22;7202;50.718;7.072;2023-02-19T03:35:12;10.30;99.90
14236;DHT22;7202;50.718;7.072;2023-02-19T03:37:45;10.30;99.90
14236;DHT22;7202;50.718;7.072;2023-02-19T03:40:15;10.30;99.90
14236;DHT22;7202;50.718;7.072;2023-02-19T03:42:49;10.30;99.90
14236;DHT22;7202;50.718;7.072;2023-02-19T03:45:35;10.30;99.90
14236;DHT22;7202;50.718;7.072;2023-02-19T03:48:15;10.30;99.90
14236;DHT22;7202;50.718;7.072;2023-02-19T03:50:50;10.30;99.90
14236;DHT22;7202;50.718;7.072;2023-02-19T03:53:25;10.30;99.90
14236;DHT22;7202;50.718;7.072;2023-02-19T03:56:04;10.30;99.90
14236;DHT22;7202;50.718;7.072;2023-02-19T03:58:43;10.30;99.90
14236;DHT22;7202;50.718;7.072;2023-02-19T04:01:20;10.20;99.90
14236;DHT22;7202;50.718;7.072;2023-02-19T04:03:55;10.20;99.90
14236;DHT22;7202;50.718;7.072;2023-02-19T04:06:28;10.20;99.90
14236;DHT22;7202;50.718;7.072;2023-02-19T04:09:02;10.20;99.90
14236;DHT22;7202;50.718;7.072;2023-02-19T04:11:32;10.20;99.90
14236;DHT22;7202;50.718;7.072;2023-02-19T04:14:07;10.20;99.90
14236;DHT22;7202;50.718;7.072;2023-02-19T04:16:40;10.20;99.90
14236;DHT22;7202;50.718;7.072;2023-02-19T04:19:12;10.30;99.90
14236;DHT22;7202;50.718;7.072;2023-02-19T04:21:45;10.30;99.90
14236;DHT22;7202;50.718;7.072;2023-02-19T04:24:18;10.30;99.90
14236;DHT22;7202;50.718;7.072;2023-02-19T04:26:49;10.20;99.90
14236;DHT22;7202;50.718;7.072;2023-02-19T04:29:18;10.20;99.90
14236;DHT22;7202;50.718;7.072;2023-02-19T04:31:46;10.30;99.90
14236;DHT22;7202;50.718;7.072;2023-02-19T04:34:15;10.30;99.90
14236;DHT22;7202;50.718;7.072;2023-02-19T04:36:45;10.30;99.90
14236;DHT22;7202;50.718;7.072;2023-02-19T04:39:14;10.30;99.90
14236;DHT22;7202;50.718;7.072;2023-02-19T04:41:42;10.20;99.90
14236;DHT22;7202;50.718;7.072;2023-02-19T04:44:11;10.20;99.90
14236;DHT22;7202;50.718;7.072;2023-02-19T04:46:39;10.20;99.90
14236;DHT22;7202;50.718;7.072;2023-02-19T04:49:09;10.20;99.90
14236;DHT22;7202;50.718;7.072;2023-02-19T04:51:38;10.20;99.90
14236;DHT22;7202;50.718;7.072;2023-02-19T04:54:08;10.20;99.90
14236;DHT22;7202;50.718;7.072;2023-02-19T04:56:38;10.20;99.90
14236;DHT22;7202;50.718;7.072;2023-02-19T04:59:06;10.20;99.90
14236;DHT22;7202;50.718;7.072;2023-02-19T05:01:35;10.30;99.90
14236;DHT22;7202;50.718;7.072;2023-02-19T05:04:04;10.20;99.90
14236;DHT22;7202;50.718;7.072;2023-02-19T05:06:32;10.20;99.90
14236;DHT22;7202;50.718;7.072;2023-02-19T05:09:01;10.20;99.90
14236;DHT22;7202;50.718;7.072;2023-02-19T05:11:31;10.20;99.90
14236;DHT22;7202;50.718;7.072;2023-02-19T05:14:00;10.20;99.90
14236;DHT22;7202;50.718;7.072;2023-02-19T05:16:29;10.20;99.90
14236;DHT22;7202;50.718;7.072;2023-02-19T05:18:57;10.20;99.90
14236;DHT22;7202;50.718;7.072;2023-02-19T05:21:26;10.20;99.90
14236;DHT22;7202;50.718;7.072;2023-02-19T05:23:55;10.20;99.90
14236;DHT22;7202;50.718;7.072;2023-02-19T05:26:23;10.20;99.90
14236;DHT22;7202;50.718;7.072;2023-02-19T05:28:54;10.20;99.90
14236;DHT22;7202;50.718;7.072;2023-02-19T05:31:23;10.20;99.90
14236;DHT22;7202;50.718;7.072;2023-02-19T05:33:53;10.10;99.90
14236;DHT22;7202;50.718;7.072;2023-02-19T05:36:22;10.10;99.90
14236;DHT22;7202;50.718;7.072;2023-02-19T05:38:52;10.10;99.90
14236;DHT22;7202;50.718;7.072;2023-02-19T05:41:23;10.10;99.90
14236;DHT22;7202;50.718;7.072;2023-02-19T05:43:54;10.10;99.90
14236;DHT22;7202;50.718;7.072;2023-02-19T05:46:24;10.10;99.90
14236;DHT22;7202;50.718;7.072;2023-02-19T05:48:53;10.10;99.90
14236;DHT22;7202;50.718;7.072;2023-02-19T05:51:23;10.10;99.90
14236;DHT22;7202;50.718;7.072;2023-02-19T05:53:53;10.10;99.90
14236;DHT22;7202;50.718;7.072;2023-02-19T05:56:30;10.10;99.90
14236;DHT22;7202;50.718;7.072;2023-02-19T05:59:02;10.10;99.90
14236;DHT22;7202;50.718;7.072;2023-02-19T06:01:33;10.10;99.90
14236;DHT22;7202;50.718;7.072;2023-02-19T06:04:02;10.10;99.90
14236;DHT22;7202;50.718;7.072;2023-02-19T06:06:31;10.10;99.90
14236;DHT22;7202;50.718;7.072;2023-02-19T06:09:00;10.20;99.90
14236;DHT22;7202;50.718;7.072;2023-02-19T06:11:29;10.20;99.90
14236;DHT22;7202;50.718;7.072;2023-02-19T06:13:58;10.20;99.90
14236;DHT22;7202;50.718;7.072;2023-02-19T06:16:28;10.20;99.90
14236;DHT22;7202;50.718;7.072;2023-02-19T06:18:58;10.10;99.90
14236;DHT22;7202;50.718;7.072;2023-02-19T06:21:28;10.10;99.90
14236;DHT22;7202;50.718;7.072;2023-02-19T06:23:57;10.10;99.90
14236;DHT22;7202;50.718;7.072;2023-02-19T06:26:26;10.00;99.90
14236;DHT22;7202;50.718;7.072;2023-02-19T06:28:54;10.00;99.90
14236;DHT22;7202;50.718;7.072;2023-02-19T06:31:23;10.00;99.90
14236;DHT22;7202;50.718;7.072;2023-02-19T06:33:53;10.00;99.90
14236;DHT22;7202;50.718;7.072;2023-02-19T06:36:22;10.00;99.90
14236;DHT22;7202;50.718;7.072;2023-02-19T06:38:51;10.00;99.90
14236;DHT22;7202;50.718;7.072;2023-02-19T06:41:20;9.90;99.90
14236;DHT22;7202;50.718;7.072;2023-02-19T06:43:48;10.00;99.90
14236;DHT22;7202;50.718;7.072;2023-02-19T06:46:17;9.90;99.90
14236;DHT22;7202;50.718;7.072;2023-02-19T06:48:46;9.90;99.90
14236;DHT22;7202;50.718;7.072;2023-02-19T06:51:17;9.90;99.90
14236;DHT22;7202;50.718;7.072;2023-02-19T06:53:49;9.90;99.90
14236;DHT22;7202;50.718;7.072;2023-02-19T06:56:23;9.90;99.90
14236;DHT22;7202;50.718;7.072;2023-02-19T06:58:54;9.90;99.90
14236;DHT22;7202;50.718;7.072;2023-02-19T07:01:23;9.90;99.90
14236;DHT22;7202;50.718;7.072;2023-02-19T07:03:52;9.90;99.90
14236;DHT22;7202;50.718;7.072;2023-02-19T07:06:23;9.90;99.90
14236;DHT22;7202;50.718;7.072;2023-02-19T07:08:54;9.90;99.90
14236;DHT22;7202;50.718;7.072;2023-02-19T07:11:23;9.90;99.90
14236;DHT22;7202;50.718;7.072;2023-02-19T07:13:54;9.90;99.90
14236;DHT22;7202;50.718;7.072;2023-02-19T07:16:23;9.90;99.90
14236;DHT22;7202;50.718;7.072;2023-02-19T07:18:54;9.90;99.90
14236;DHT22;7202;50.718;7.072;2023-02-19T07:21:25;9.90;99.90
14236;DHT22;7202;50.718;7.072;2023-02-19T07:23:54;9.90;99.90
14236;DHT22;7202;50.718;7.072;2023-02-19T07:26:23;9.90;99.90
14236;DHT22;7202;50.718;7.072;2023-02-19T07:28:52;9.90;99.90
14236;DHT22;7202;50.718;7.072;2023-02-19T07:31:22;10.00;99.90
14236;DHT22;7202;50.718;7.072;2023-02-19T07:33:51;10.00;99.90
14236;DHT22;7202;50.718;7.072;2023-02-19T07:36:21;10.00;99.90
14236;DHT22;7202;50.718;7.072;2023-02-19T07:38:55;10.00;99.90
14236;DHT22;7202;50.718;7.072;2023-02-19T07:41:26;10.00;99.90
14236;DHT22;7202;50.718;7.072;2023-02-19T07:43:57;10.00;99.90
14236;DHT22;7202;50.718;7.072;2023-02-19T07:46:26;10.00;99.90
14236;DHT22;7202;50.718;7.072;2023-02-19T07:48:56;10.00;99.90
14236;DHT22;7202;50.718;7.072;2023-02-19T07:51:25;9.90;99.90
14236;DHT22;7202;50.718;7.072;2023-02-19T07:53:54;10.00;99.90
14236;DHT22;7202;50.718;7.072;2023-02-19T07:56:23;9.90;99.90
14236;DHT22;7202;50.718;7.072;2023-02-19T07:58:51;9.90;99.90
14236;DHT22;7202;50.718;7.072;2023-02-19T08:01:22;9.90;99.90
14236;DHT22;7202;50.718;7.072;2023-02-19T08:04:12;9.90;99.90
14236;DHT22;7202;50.718;7.072;2023-02-19T08:06:41;9.90;99.90
14236;DHT22;7202;50.718;7.072;2023-02-19T08:09:11;10.00;99.90
14236;DHT22;7202;50.718;7.072;2023-02-19T08:11:40;10.00;99.90
14236;DHT22;7202;50.718;7.072;2023-02-19T08:14:26;10.00;99.90
14236;DHT22;7202;50.718;7.072;2023-02-19T08:16:55;10.00;99.90
14236;DHT22;7202;50.718;7.072;2023-02-19T08:19:24;10.00;99.90
14236;DHT22;7202;50.718;7.072;2023-02-19T08:21:53;10.00;99.90
14236;DHT22;7202;50.718;7.072;2023-02-19T08:24:22;10.00;99.90
14236;DHT22;7202;50.718;7.072;2023-02-19T08:26:51;10.00;99.90
14236;DHT22;7202;50.718;7.072;2023-02-19T08:29:20;10.00;99.90
14236;DHT22;7202;50.718;7.072;2023-02-19T08:31:48;10.00;99.90
14236;DHT22;7202;50.718;7.072;2023-02-19T08:34:17;10.00;99.90
14236;DHT22;7202;50.718;7.072;2023-02-19T08:36:45;10.00;99.90
14236;DHT22;7202;50.718;7.072;2023-02-19T08:39:14;10.00;99.90
14236;DHT22;7202;50.718;7.072;2023-02-19T08:41:45;10.00;99.90
14236;DHT22;7202;50.718;7.072;2023-02-19T08:44:14;10.10;99.90
14236;DHT22;7202;50.718;7.072;2023-02-19T08:46:43;10.10;99.90
14236;DHT22;7202;50.718;7.072;2023-02-19T08:49:11;10.20;99.90
14236;DHT22;7202;50.718;7.072;2023-02-19T08:51:40;10.20;99.90
14236;DHT22;7202;50.718;7.072;2023-02-19T08:54:08;10.20;99.90
14236;DHT22;7202;50.718;7.072;2023-02-19T08:56:37;10.20;99.90
14236;DHT22;7202;50.718;7.072;2023-02-19T08:59:07;10.30;99.90
14236;DHT22;7202;50.718;7.072;2023-02-19T09:01:35;10.30;99.90
14236;DHT22;7202;50.718;7.072;2023-02-19T09:04:04;10.30;99.90
14236;DHT22;7202;50.718;7.072;2023-02-19T09:06:33;10.40;99.90
14236;DHT22;7202;50.718;7.072;2023-02-19T09:09:02;10.40;99.90
14236;DHT22;7202;50.718;7.072;2023-02-19T09:11:30;10.40;99.90
14236;DHT22;7202;50.718;7.072;2023-02-19T09:13:59;10.50;99.90
14236;DHT22;7202;50.718;7.072;2023-02-19T09:16:29;10.50;99.90
14236;DHT22;7202;50.718;7.072;2023-02-19T09:18:58;10.60;99.90
14236;DHT22;7202;50.718;7.072;2023-02-19T09:21:26;10.60;99.90
14236;DHT22;7202;50.718;7.072;2023-02-19T09:23:55;10.70;99.90
14236;DHT22;7202;50.718;7.072;2023-02-19T09:26:24;10.70;99.90
14236;DHT22;7202;50.718;7.072;2023-02-19T09:28:53;10.80;99.90
14236;DHT22;7202;50.718;7.072;2023-02-19T09:31:22;10.80;99.90
14236;DHT22;7202;50.718;7.072;2023-02-19T09:33:52;10.90;99.90
14236;DHT22;7202;50.718;7.072;2023-02-19T09:36:21;10.90;99.90
14236;DHT22;7202;50.718;7.072;2023-02-19T09:38:49;11.00;99.90
14236;DHT22;7202;50.718;7.072;2023-02-19T09:41:23;11.00;99.90
14236;DHT22;7202;50.718;7.072;2023-02-19T09:43:53;11.00;99.90
14236;DHT22;7202;50.718;7.072;2023-02-19T09:46:26;11.10;99.90
14236;DHT22;7202;50.718;7.072;2023-02-19T09:49:02;11.10;99.90
14236;DHT22;7202;50.718;7.072;2023-02-19T09:51:34;11.10;99.90
14236;DHT22;7202;50.718;7.072;2023-02-19T09:54:06;11.00;99.90
14236;DHT22;7202;50.718;7.072;2023-02-19T09:56:40;11.00;99.90
14236;DHT22;7202;50.718;7.072;2023-02-19T09:59:17;11.00;99.90
14236;DHT22;7202;50.718;7.072;2023-02-19T10:01:50;11.00;99.90
14236;DHT22;7202;50.718;7.072;2023-02-19T10:04:22;11.00;99.90
14236;DHT22;7202;50.718;7.072;2023-02-19T10:06:51;11.00;99.90
14236;DHT22;7202;50.718;7.072;2023-02-19T10:09:28;11.00;99.90
14236;DHT22;7202;50.718;7.072;2023-02-19T10:11:58;11.00;99.90
14236;DHT22;7202;50.718;7.072;2023-02-19T10:14:31;11.00;99.90
14236;DHT22;7202;50.718;7.072;2023-02-19T10:17:04;11.00;99.90
14236;DHT22;7202;50.718;7.072;2023-02-19T10:19:35;11.00;99.90
14236;DHT22;7202;50.718;7.072;2023-02-19T10:22:04;11.00;99.90
14236;DHT22;7202;50.718;7.072;2023-02-19T10:24:32;11.00;99.90
14236;DHT22;7202;50.718;7.072;2023-02-19T10:27:09;11.10;99.90
14236;DHT22;7202;50.718;7.072;2023-02-19T10:29:37;11.00;99.90
14236;DHT22;7202;50.718;7.072;2023-02-19T10:32:17;11.00;99.90
14236;DHT22;7202;50.718;7.072;2023-02-19T10:35:07;11.00;99.90
14236;DHT22;7202;50.718;7.072;2023-02-19T10:37:41;11.00;99.90
14236;DHT22;7202;50.718;7.072;2023-02-19T10:40:15;11.00;99.90
14236;DHT22;7202;50.718;7.072;2023-02-19T10:42:46;11.00;99.90
14236;DHT22;7202;50.718;7.072;2023-02-19T10:45:17;11.10;99.90
14236;DHT22;7202;50.718;7.072;2023-02-19T10:47:47;11.00;99.90
14236;DHT22;7202;50.718;7.072;2023-02-19T10:50:24;11.00;99.90
14236;DHT22;7202;50.718;7.072;2023-02-19T10:52:55;10.90;99.90
14236;DHT22;7202;50.718;7.072;2023-02-19T10:55:27;10.90;99.90
14236;DHT22;7202;50.718;7.072;2023-02-19T10:57:56;10.90;99.90
14236;DHT22;7202;50.718;7.072;2023-02-19T11:00:27;10.90;99.90
14236;DHT22;7202;50.718;7.072;2023-02-19T11:03:12;10.90;99.90
14236;DHT22;7202;50.718;7.072;2023-02-19T11:05:53;10.90;99.90
14236;DHT22;7202;50.718;7.072;2023-02-19T11:08:24;10.90;99.90
14236;DHT22;7202;50.718;7.072;2023-02-19T11:10:53;10.90;99.90
14236;DHT22;7202;50.718;7.072;2023-02-19T11:13:26;10.90;99.90
14236;DHT22;7202;50.718;7.072;2023-02-19T11:15:59;11.00;99.90
14236;DHT22;7202;50.718;7.072;2023-02-19T11:18:30;10.90;99.90
14236;DHT22;7202;50.718;7.072;2023-02-19T11:21:02;10.90;99.90
14236;DHT22;7202;50.718;7.072;2023-02-19T11:23:35;10.90;99.90
14236;DHT22;7202;50.718;7.072;2023-02-19T11:26:12;11.00;99.90
14236;DHT22;7202;50.718;7.072;2023-02-19T11:28:43;11.10;99.90
14236;DHT22;7202;50.718;7.072;2023-02-19T11:31:18;11.10;99.90
14236;DHT22;7202;50.718;7.072;2023-02-19T11:33:54;11.20;99.90
14236;DHT22;7202;50.718;7.072;2023-02-19T11:36:31;11.30;99.90
14236;DHT22;7202;50.718;7.072;2023-02-19T11:39:18;11.40;99.90
14236;DHT22;7202;50.718;7.072;2023-02-19T11:44:47;11.40;99.90
14236;DHT22;7202;50.718;7.072;2023-02-19T11:47:40;11.30;99.90
14236;DHT22;7202;50.718;7.072;2023-02-19T11:50:18;11.30;99.90
14236;DHT22;7202;50.718;7.072;2023-02-19T11:52:59;11.30;99.90
14236;DHT22;7202;50.718;7.072;2023-02-19T11:55:46;11.40;99.90
14236;DHT22;7202;50.718;7.072;2023-02-19T11:58:42;11.50;99.90
14236;DHT22;7202;50.718;7.072;2023-02-19T12:01:20;11.60;99.90
14236;DHT22;7202;50.718;7.072;2023-02-19T12:04:09;11.70;99.90
14236;DHT22;7202;50.718;7.072;2023-02-19T12:06:50;11.70;99.90
14236;DHT22;7202;50.718;7.072;2023-02-19T12:09:30;11.70;99.90
14236;DHT22;7202;50.718;7.072;2023-02-19T12:12:15;11.70;99.90
14236;DHT22;7202;50.718;7.072;2023-02-19T12:15:04;11.60;99.90
14236;DHT22;7202;50.718;7.072;2023-02-19T12:17:51;11.60;99.90
14236;DHT22;7202;50.718;7.072;2023-02-19T12:20:28;11.50;99.90
14236;DHT22;7202;50.718;7.072;2023-02-19T12:23:17;11.50;99.90
14236;DHT22;7202;50.718;7.072;2023-02-19T12:25:57;11.40;99.90
14236;DHT22;7202;50.718;7.072;2023-02-19T12:28:42;11.40;99.90
14236;DHT22;7202;50.718;7.072;2023-02-19T12:31:28;11.40;99.90
14236;DHT22;7202;50.718;7.072;2023-02-19T12:34:17;11.40;99.90
14236;DHT22;7202;50.718;7.072;2023-02-19T12:36:57;11.40;99.90
14236;DHT22;7202;50.718;7.072;2023-02-19T12:39:36;11.40;99.90
14236;DHT22;7202;50.718;7.072;2023-02-19T12:42:19;11.30;99.90
14236;DHT22;7202;50.718;7.072;2023-02-19T12:44:51;11.30;99.90
14236;DHT22;7202;50.718;7.072;2023-02-19T12:47:28;11.30;99.90
14236;DHT22;7202;50.718;7.072;2023-02-19T12:50:04;11.20;99.90
14236;DHT22;7202;50.718;7.072;2023-02-19T12:52:36;11.20;99.90
14236;DHT22;7202;50.718;7.072;2023-02-19T12:55:18;11.30;99.90
14236;DHT22;7202;50.718;7.072;2023-02-19T12:57:50;11.30;99.90
14236;DHT22;7202;50.718;7.072;2023-02-19T13:00:28;11.30;99.90
14236;DHT22;7202;50.718;7.072;2023-02-19T13:03:00;11.40;99.90
14236;DHT22;7202;50.718;7.072;2023-02-19T13:05:39;11.40;99.90
14236;DHT22;7202;50.718;7.072;2023-02-19T13:08:14;11.40;99.90
14236;DHT22;7202;50.718;7.072;2023-02-19T13:10:52;11.40;99.90
14236;DHT22;7202;50.718;7.072;2023-02-19T13:13:26;11.50;99.90
14236;DHT22;7202;50.718;7.072;2023-02-19T13:16:00;11.50;99.90
14236;DHT22;7202;50.718;7.072;2023-02-19T13:18:33;11.60;99.90
14236;DHT22;7202;50.718;7.072;2023-02-19T13:21:04;11.60;99.90
14236;DHT22;7202;50.718;7.072;2023-02-19T13:23:35;11.60;99.90
14236;DHT22;7202;50.718;7.072;2023-02-19T13:26:48;11.60;99.90
14236;DHT22;7202;50.718;7.072;2023-02-19T13:29:35;11.70;99.90
14236;DHT22;7202;50.718;7.072;2023-02-19T13:32:19;11.70;99.90
14236;DHT22;7202;50.718;7.072;2023-02-19T13:35:05;11.70;99.90
14236;DHT22;7202;50.718;7.072;2023-02-19T13:37:39;11.80;99.90
14236;DHT22;7202;50.718;7.072;2023-02-19T13:40:19;11.80;99.90
14236;DHT22;7202;50.718;7.072;2023-02-19T13:42:54;11.70;99.90
14236;DHT22;7202;50.718;7.072;2023-02-19T13:45:30;11.70;99.90
14236;DHT22;7202;50.718;7.072;2023-02-19T13:48:13;11.80;99.90
14236;DHT22;7202;50.718;7.072;2023-02-19T13:50:42;11.70;99.90
14236;DHT22;7202;50.718;7.072;2023-02-19T13:53:48;11.70;99.90
14236;DHT22;7202;50.718;7.072;2023-02-19T13:56:37;11.70;99.90
14236;DHT22;7202;50.718;7.072;2023-02-19T13:59:33;11.70;99.90
14236;DHT22;7202;50.718;7.072;2023-02-19T14:04:58;11.70;99.90
14236;DHT22;7202;50.718;7.072;2023-02-19T14:10:55;11.60;99.90
14236;DHT22;7202;50.718;7.072;2023-02-19T14:13:56;11.60;99.90
14236;DHT22;7202;50.718;7.072;2023-02-19T14:16:30;11.60;99.90
14236;DHT22;7202;50.718;7.072;2023-02-19T14:18:59;11.50;99.90
14236;DHT22;7202;50.718;7.072;2023-02-19T14:21:36;11.40;99.90
14236;DHT22;7202;50.718;7.072;2023-02-19T14:24:09;11.40;99.90
14236;DHT22;7202;50.718;7.072;2023-02-19T14:26:39;11.40;99.90
14236;DHT22;7202;50.718;7.072;2023-02-19T14:29:10;11.30;99.90
14236;DHT22;7202;50.718;7.072;2023-02-19T14:31:43;11.30;99.90
14236;DHT22;7202;50.718;7.072;2023-02-19T14:34:15;11.20;99.90
14236;DHT22;7202;50.718;7.072;2023-02-19T14:36:52;11.20;99.90
14236;DHT22;7202;50.718;7.072;2023-02-19T14:39:23;11.10;99.90
14236;DHT22;7202;50.718;7.072;2023-02-19T14:41:56;11.10;99.90
14236;DHT22;7202;50.718;7.072;2023-02-19T14:44:28;11.10;99.90
14236;DHT22;7202;50.718;7.072;2023-02-19T14:47:01;11.10;99.90
14236;DHT22;7202;50.718;7.072;2023-02-19T14:49:36;11.10;99.90
14236;DHT22;7202;50.718;7.072;2023-02-19T14:52:15;11.10;99.90
14236;DHT22;7202;50.718;7.072;2023-02-19T14:54:48;11.10;99.90
14236;DHT22;7202;50.718;7.072;2023-02-19T14:57:20;11.10;99.90
14236;DHT22;7202;50.718;7.072;2023-02-19T14:59:54;11.10;99.90
14236;DHT22;7202;50.718;7.072;2023-02-19T15:02:25;11.10;99.90
14236;DHT22;7202;50.718;7.072;2023-02-19T15:04:54;11.10;99.90
14236;DHT22;7202;50.718;7.072;2023-02-19T15:07:28;11.10;99.90
14236;DHT22;7202;50.718;7.072;2023-02-19T15:10:00;11.10;99.90
14236;DHT22;7202;50.718;7.072;2023-02-19T15:12:34;11.00;99.90
14236;DHT22;7202;50.718;7.072;2023-02-19T15:15:04;11.00;99.90
14236;DHT22;7202;50.718;7.072;2023-02-19T15:17:35;11.00;99.90
14236;DHT22;7202;50.718;7.072;2023-02-19T15:20:10;11.00;99.90
14236;DHT22;7202;50.718;7.072;2023-02-19T15:22:40;10.90;99.90
14236;DHT22;7202;50.718;7.072;2023-02-19T15:25:14;10.90;99.90
14236;DHT22;7202;50.718;7.072;2023-02-19T15:27:45;10.90;99.90
14236;DHT22;7202;50.718;7.072;2023-02-19T15:30:22;10.90;99.90
14236;DHT22;7202;50.718;7.072;2023-02-19T15:32:52;10.90;99.90
14236;DHT22;7202;50.718;7.072;2023-02-19T15:35:21;10.90;99.90
14236;DHT22;7202;50.718;7.072;2023-02-19T15:37:53;10.90;99.90
14236;DHT22;7202;50.718;7.072;2023-02-19T15:40:29;10.90;99.90
14236;DHT22;7202;50.718;7.072;2023-02-19T15:42:59;10.90;99.90
14236;DHT22;7202;50.718;7.072;2023-02-19T15:45:30;10.90;99.90
14236;DHT22;7202;50.718;7.072;2023-02-19T15:48:03;10.80;99.90
14236;DHT22;7202;50.718;7.072;2023-02-19T15:50:35;10.80;99.90
14236;DHT22;7202;50.718;7.072;2023-02-19T15:53:12;10.70;99.90
14236;DHT22;7202;50.718;7.072;2023-02-19T15:55:43;10.70;99.90
14236;DHT22;7202;50.718;7.072;2023-02-19T15:58:18;10.70;99.90
14236;DHT22;7202;50.718;7.072;2023-02-19T16:00:50;10.70;99.90
14236;DHT22;7202;50.718;7.072;2023-02-19T16:03:23;10.70;99.90
14236;DHT22;7202;50.718;7.072;2023-02-19T16:05:59;10.70;99.90
14236;DHT22;7202;50.718;7.072;2023-02-19T16:08:31;10.70;99.90
14236;DHT22;7202;50.718;7.072;2023-02-19T16:11:02;10.70;99.90
14236;DHT22;7202;50.718;7.072;2023-02-19T16:13:33;10.60;99.90
14236;DHT22;7202;50.718;7.072;2023-02-19T16:16:09;10.60;99.90
14236;DHT22;7202;50.718;7.072;2023-02-19T16:18:43;10.60;99.90
14236;DHT22;7202;50.718;7.072;2023-02-19T16:21:14;10.60;99.90
14236;DHT22;7202;50.718;7.072;2023-02-19T16:23:47;10.50;99.90
14236;DHT22;7202;50.718;7.072;2023-02-19T16:26:17;10.50;99.90
14236;DHT22;7202;50.718;7.072;2023-02-19T16:28:49;10.40;99.90
14236;DHT22;7202;50.718;7.072;2023-02-19T16:31:20;10.40;99.90
14236;DHT22;7202;50.718;7.072;2023-02-19T16:33:50;10.40;99.90
14236;DHT22;7202;50.718;7.072;2023-02-19T16:36:24;10.40;99.90
14236;DHT22;7202;50.718;7.072;2023-02-19T16:39:21;10.30;99.90
14236;DHT22;7202;50.718;7.072;2023-02-19T16:42:17;10.30;99.90